createdAt,value
2022-11-12T00:04:14.038Z,17.00
2022-11-12T00:09:36.209Z,13.73
2022-11-12T00:14:58.512Z,15.43
2022-11-12T00:20:21.950Z,12.60
2022-11-12T00:25:44.599Z,20.48
2022-11-12T00:31:06.760Z,16.17
2022-11-12T00:36:30.085Z,15.80
2022-11-12T00:41:52.797Z,17.67
2022-11-12T00:47:16.291Z,10.57
2022-11-12T00:52:38.452Z,11.77
2022-11-12T00:58:00.668Z,14.93
2022-11-12T01:03:22.990Z,12.40
2022-11-12T01:08:48.581Z,15.13
2022-11-12T01:14:24.982Z,15.33
2022-11-12T01:19:47.658Z,16.87
2022-11-12T01:25:09.916Z,16.27
2022-11-12T01:30:32.626Z,20.77
2022-11-12T01:35:55.446Z,21.00
2022-11-12T01:41:34.702Z,26.07
2022-11-12T01:47:01.769Z,22.73
2022-11-12T01:52:48.453Z,18.48
2022-11-12T01:58:21.482Z,22.70
2022-11-12T02:03:44.324Z,24.02
2022-11-12T02:09:08.332Z,20.60
2022-11-12T02:14:31.456Z,25.93
2022-11-12T02:19:55.245Z,23.45
2022-11-12T02:25:22.755Z,24.07
2022-11-12T02:31:00.899Z,25.48
2022-11-12T02:36:23.199Z,21.30
2022-11-12T02:41:45.531Z,21.77
2022-11-12T02:47:07.692Z,22.82
2022-11-12T02:52:30.301Z,23.20
2022-11-12T02:57:53.141Z,17.27
2022-11-12T03:03:15.480Z,17.42
2022-11-12T03:08:37.841Z,17.62
2022-11-12T03:14:00.907Z,17.13
2022-11-12T03:19:23.083Z,17.53
2022-11-12T03:24:45.269Z,13.50
2022-11-12T03:30:07.960Z,12.00
2022-11-12T03:35:30.219Z,11.15
2022-11-12T03:40:52.961Z,16.17
2022-11-12T03:46:15.366Z,16.27
2022-11-12T03:51:38.111Z,13.65
2022-11-12T03:57:00.293Z,13.28
2022-11-12T04:02:23.137Z,14.70
2022-11-12T04:07:59.083Z,13.15
2022-11-12T04:13:31.335Z,15.77
2022-11-12T04:19:13.081Z,14.63
2022-11-12T04:24:57.726Z,13.93
2022-11-12T04:30:20.692Z,13.70
2022-11-12T04:35:44.013Z,11.73
2022-11-12T04:41:24.938Z,14.30
2022-11-12T04:46:47.101Z,13.63
2022-11-12T04:52:09.264Z,12.30
2022-11-12T04:57:31.681Z,13.53
2022-11-12T05:02:55.603Z,14.00
2022-11-12T05:08:21.265Z,13.88
2022-11-12T05:13:43.930Z,13.77
2022-11-12T05:19:06.184Z,15.75
2022-11-12T05:24:41.475Z,15.30
2022-11-12T05:29:52.558Z,14.58
2022-11-12T05:35:14.873Z,15.43
2022-11-12T05:40:37.032Z,15.75
2022-11-12T05:46:00.806Z,15.63
2022-11-12T05:51:23.328Z,15.38
2022-11-12T05:56:46.095Z,15.10
2022-11-12T06:02:08.308Z,13.70
2022-11-12T06:07:30.521Z,12.60
2022-11-12T06:12:52.672Z,12.33
2022-11-12T06:18:14.941Z,12.68
2022-11-12T06:23:37.123Z,11.10
2022-11-12T06:28:59.851Z,15.18
2022-11-12T06:34:22.010Z,11.57
2022-11-12T06:39:44.201Z,16.77
2022-11-12T06:45:06.460Z,14.67
2022-11-12T06:50:28.834Z,12.03
2022-11-12T06:55:50.993Z,16.82
2022-11-12T07:01:21.930Z,15.48
2022-11-12T07:06:46.079Z,14.83
2022-11-12T07:12:08.874Z,21.33
2022-11-12T07:17:31.076Z,17.85
2022-11-12T07:22:53.272Z,12.18
2022-11-12T07:28:15.868Z,12.93
2022-11-12T07:33:38.818Z,12.55
2022-11-12T07:39:03.706Z,14.60
2022-11-12T07:44:26.523Z,13.03
2022-11-12T07:49:48.770Z,16.35
2022-11-12T07:55:11.451Z,14.23
2022-11-12T08:00:34.139Z,14.38
2022-11-12T08:05:57.354Z,15.23
2022-11-12T08:11:21.927Z,15.20
2022-11-12T08:16:44.505Z,20.70
2022-11-12T08:22:07.224Z,15.70
2022-11-12T08:27:30.027Z,18.87
2022-11-12T08:32:52.194Z,16.35
2022-11-12T08:38:19.513Z,18.30
2022-11-12T08:43:41.921Z,21.17
2022-11-12T08:49:04.085Z,14.53
2022-11-12T08:54:26.264Z,18.92
2022-11-12T08:59:48.464Z,16.00
2022-11-12T09:05:10.832Z,18.00
2022-11-12T09:10:34.156Z,18.65
2022-11-12T09:15:57.811Z,17.82
2022-11-12T09:21:25.091Z,17.17
2022-11-12T09:26:49.078Z,16.10
2022-11-12T09:32:11.339Z,15.63
2022-11-12T09:37:34.509Z,15.43
2022-11-12T09:42:58.688Z,14.80
2022-11-12T09:48:29.428Z,16.95
2022-11-12T09:54:05.399Z,13.75
2022-11-12T09:59:30.960Z,14.83
2022-11-12T10:05:03.482Z,12.82
2022-11-12T10:10:49.296Z,17.73
2022-11-12T10:16:44.109Z,16.52
2022-11-12T10:22:14.112Z,17.23
2022-11-12T10:27:44.532Z,14.50
2022-11-12T10:33:07.407Z,14.47
2022-11-12T10:38:33.407Z,15.20
2022-11-12T10:43:59.144Z,17.80
2022-11-12T10:49:31.775Z,15.63
2022-11-12T10:54:57.057Z,16.70
2022-11-12T11:00:32.135Z,17.10
2022-11-12T11:06:12.888Z,14.90
2022-11-12T11:11:56.740Z,16.97
2022-11-12T11:17:23.574Z,14.50
2022-11-12T11:23:02.694Z,14.30
2022-11-12T11:28:48.132Z,15.07
2022-11-12T11:34:18.355Z,14.57
2022-11-12T11:39:54.079Z,17.87
2022-11-12T11:45:32.837Z,13.83
2022-11-12T11:51:02.439Z,12.37
2022-11-12T11:56:38.522Z,14.07
2022-11-12T12:02:33.508Z,17.67
2022-11-12T12:08:09.222Z,14.83
2022-11-12T12:13:51.323Z,18.33
2022-11-12T12:19:36.481Z,15.53
2022-11-12T12:25:06.721Z,15.48
2022-11-12T12:30:50.623Z,18.65
2022-11-12T12:36:43.983Z,14.87
2022-11-12T12:47:55.811Z,15.40
2022-11-12T12:53:37.255Z,17.10
2022-11-12T12:59:07.310Z,15.97
2022-11-12T13:09:45.889Z,15.37
2022-11-12T13:15:27.392Z,12.20
2022-11-12T13:21:12.975Z,13.20
2022-11-12T13:26:59.551Z,16.60
2022-11-12T13:32:49.123Z,11.57
2022-11-12T13:38:23.847Z,13.45
2022-11-12T13:43:55.192Z,16.10
2022-11-12T13:49:25.968Z,14.03
2022-11-12T13:54:57.315Z,17.20
2022-11-12T14:00:39.170Z,17.12
2022-11-12T14:06:05.718Z,13.20
2022-11-12T14:11:56.831Z,16.82
2022-11-12T14:17:51.037Z,15.40
2022-11-12T14:23:24.896Z,14.23
2022-11-12T14:28:50.076Z,12.10
2022-11-12T14:34:37.672Z,20.32
2022-11-12T14:40:00.662Z,16.52
2022-11-12T14:45:34.142Z,17.48
2022-11-12T14:50:54.840Z,15.93
2022-11-12T14:56:21.244Z,16.93
2022-11-12T15:02:29.438Z,17.30
2022-11-12T15:08:04.361Z,21.70
2022-11-12T15:13:47.514Z,21.67
2022-11-12T15:19:30.969Z,17.63
2022-11-12T15:24:55.276Z,21.00
2022-11-12T15:30:32.578Z,18.70
2022-11-12T15:35:58.395Z,20.43
2022-11-12T15:41:30.084Z,23.00
2022-11-12T15:46:52.335Z,19.50
2022-11-12T15:52:14.529Z,19.03
2022-11-12T15:57:40.901Z,21.53
2022-11-12T16:03:18.751Z,22.30
2022-11-12T16:08:40.915Z,19.12
2022-11-12T16:14:03.564Z,20.15
2022-11-12T16:19:31.896Z,20.92
2022-11-12T16:24:55.205Z,23.50
2022-11-12T16:30:24.857Z,27.45
2022-11-12T16:35:48.607Z,24.53
2022-11-12T16:41:11.406Z,26.37
2022-11-12T16:46:41.170Z,22.87
2022-11-12T16:57:23.511Z,25.30
2022-11-12T17:02:49.508Z,27.60
2022-11-12T17:08:11.982Z,24.85
2022-11-12T17:13:34.744Z,32.08
2022-11-12T17:18:58.695Z,24.55
2022-11-12T17:24:21.957Z,26.55
2022-11-12T17:29:44.204Z,33.37
2022-11-12T17:35:06.802Z,24.95
2022-11-12T17:40:29.337Z,27.15
2022-11-12T17:45:58.667Z,32.48
2022-11-12T17:51:27.583Z,30.70
2022-11-12T17:56:49.817Z,24.75
2022-11-12T18:02:12.605Z,29.33
2022-11-12T18:07:35.987Z,25.97
2022-11-12T18:12:59.348Z,24.30
2022-11-12T18:18:21.983Z,26.37
2022-11-12T18:23:45.055Z,31.55
2022-11-12T18:29:12.861Z,31.82
2022-11-12T18:34:35.050Z,25.05
2022-11-12T18:39:57.263Z,28.15
2022-11-12T18:45:20.300Z,31.70
2022-11-12T18:50:43.071Z,32.65
2022-11-12T18:56:08.550Z,31.62
2022-11-12T19:01:33.553Z,31.30
2022-11-12T19:06:56.111Z,30.72
2022-11-12T19:12:18.516Z,32.65
2022-11-12T19:17:41.217Z,31.70
2022-11-12T19:23:04.101Z,39.08
2022-11-12T19:28:27.498Z,39.30
2022-11-12T19:33:51.610Z,33.75
2022-11-12T19:39:15.073Z,29.80
2022-11-12T19:44:37.812Z,32.88
2022-11-12T19:50:00.408Z,38.65
2022-11-12T19:55:23.480Z,26.90
2022-11-12T20:00:46.912Z,34.83
2022-11-12T20:06:15.265Z,35.45
2022-11-12T20:11:37.442Z,36.80
2022-11-12T20:16:59.712Z,41.15
2022-11-12T20:22:22.091Z,32.40
2022-11-12T20:27:44.769Z,32.53
2022-11-12T20:33:07.013Z,36.10
2022-11-12T20:38:30.746Z,36.38
2022-11-12T20:43:53.210Z,37.58
2022-11-12T20:49:15.865Z,38.53
2022-11-12T20:54:38.195Z,38.80
2022-11-12T21:00:00.389Z,35.80
2022-11-12T21:05:22.812Z,40.75
2022-11-12T21:10:45.049Z,42.00
2022-11-12T21:16:07.499Z,44.73
2022-11-12T21:21:33.941Z,44.80
2022-11-12T21:26:56.399Z,40.67
2022-11-12T21:32:18.676Z,39.25
2022-11-12T21:37:41.523Z,39.13
2022-11-12T21:43:03.776Z,38.28
2022-11-12T21:48:26.556Z,40.52
2022-11-12T21:53:49.085Z,43.47
2022-11-12T21:59:12.401Z,46.10
2022-11-12T22:04:34.587Z,43.60
2022-11-12T22:09:57.265Z,41.27
2022-11-12T22:15:24.157Z,40.80
2022-11-12T22:20:43.543Z,39.60
2022-11-12T22:26:07.312Z,38.78
2022-11-12T22:31:33.810Z,37.65
2022-11-12T22:36:56.152Z,37.77
2022-11-12T22:42:18.342Z,42.17
2022-11-12T22:47:40.556Z,38.02
2022-11-12T22:53:03.869Z,36.25
2022-11-12T22:58:26.406Z,37.85
2022-11-12T23:03:50.097Z,41.85
2022-11-12T23:09:13.020Z,41.65
2022-11-12T23:14:35.286Z,34.60
2022-11-12T23:19:58.048Z,41.42
2022-11-12T23:25:21.191Z,42.80
2022-11-12T23:30:43.655Z,40.63
2022-11-12T23:36:12.790Z,41.00
2022-11-12T23:41:38.523Z,40.97
2022-11-12T23:47:00.747Z,42.20
2022-11-12T23:52:22.989Z,41.50
2022-11-12T23:57:45.177Z,37.73
